createdAt,value
2019-01-31T00:02:12.841Z,71.15
2019-01-31T00:04:50.399Z,70.98
2019-01-31T00:07:23.218Z,71.25
2019-01-31T00:09:56.206Z,71.63
2019-01-31T00:12:28.306Z,72.08
2019-01-31T00:15:01.448Z,72.17
2019-01-31T00:17:34.623Z,71.86
2019-01-31T00:20:05.286Z,71.81
2019-01-31T00:22:39.215Z,71.35
2019-01-31T00:25:12.541Z,71.67
2019-01-31T00:27:46.177Z,71.83
2019-01-31T00:30:19.066Z,72.10
2019-01-31T00:32:53.862Z,72.13
2019-01-31T00:38:56.739Z,72.17
2019-01-31T00:41:30.316Z,72.51
2019-01-31T00:44:01.344Z,72.24
2019-01-31T00:46:34.882Z,72.15
2019-01-31T00:49:09.543Z,73.31
2019-01-31T00:51:52.004Z,73.28
2019-01-31T00:54:31.826Z,73.29
2019-01-31T00:57:05.390Z,73.06
2019-01-31T00:59:37.479Z,73.95
2019-01-31T01:02:13.614Z,73.64
2019-01-31T01:04:46.156Z,73.87
2019-01-31T01:07:19.897Z,73.80
2019-01-31T01:09:53.461Z,73.86
2019-01-31T01:12:26.183Z,74.29
2019-01-31T01:14:59.017Z,73.68
2019-01-31T01:17:29.939Z,73.54
2019-01-31T01:20:07.726Z,73.72
2019-01-31T01:22:40.317Z,74.03
2019-01-31T01:25:13.767Z,73.64
2019-01-31T01:27:45.397Z,74.04
2019-01-31T01:30:19.401Z,74.16
2019-01-31T01:32:51.230Z,74.15
2019-01-31T01:35:24.918Z,74.07
2019-01-31T01:37:55.464Z,73.88
2019-01-31T01:40:30.288Z,74.48
2019-01-31T01:43:02.211Z,74.06
2019-01-31T01:45:41.999Z,74.35
2019-01-31T01:48:15.997Z,74.45
2019-01-31T01:50:50.729Z,74.60
2019-01-31T01:53:21.836Z,74.87
2019-01-31T01:55:57.622Z,74.43
2019-01-31T01:58:32.370Z,74.50
2019-01-31T02:01:05.141Z,74.13
2019-01-31T02:03:38.811Z,74.47
2019-01-31T02:06:09.294Z,74.56
2019-01-31T02:08:44.977Z,75.05
2019-01-31T02:11:18.667Z,74.91
2019-01-31T02:13:51.766Z,75.42
2019-01-31T02:16:25.626Z,75.19
2019-01-31T02:18:56.332Z,74.71
2019-01-31T02:21:28.940Z,74.83
2019-01-31T02:24:03.842Z,75.17
2019-01-31T02:26:42.681Z,75.09
2019-01-31T02:29:18.306Z,74.32
2019-01-31T02:31:53.518Z,74.55
2019-01-31T02:34:25.800Z,74.38
2019-01-31T02:37:00.538Z,74.52
2019-01-31T02:39:42.696Z,74.77
2019-01-31T02:42:10.054Z,74.73
2019-01-31T02:44:41.909Z,74.78
2019-01-31T02:47:14.097Z,75.07
2019-01-31T02:49:44.766Z,75.34
2019-01-31T02:52:17.693Z,75.37
2019-01-31T02:54:50.035Z,75.46
2019-01-31T02:57:22.919Z,76.02
2019-01-31T02:59:56.000Z,75.57
2019-01-31T03:02:27.821Z,75.76
2019-01-31T03:05:02.602Z,74.76
2019-01-31T03:07:35.137Z,74.07
2019-01-31T03:13:27.731Z,74.66
2019-01-31T03:16:00.480Z,74.50
2019-01-31T03:18:33.399Z,74.64
2019-01-31T03:21:04.322Z,75.02
2019-01-31T03:23:38.959Z,74.44
2019-01-31T03:26:13.947Z,73.92
2019-01-31T03:28:49.448Z,74.28
2019-01-31T03:31:21.749Z,74.45
2019-01-31T03:33:55.493Z,74.36
2019-01-31T03:36:29.145Z,73.75
2019-01-31T03:39:04.424Z,75.07
2019-01-31T03:41:34.745Z,74.78
2019-01-31T03:44:10.086Z,74.77
2019-01-31T03:46:44.693Z,74.92
2019-01-31T03:49:16.417Z,74.49
2019-01-31T03:51:52.236Z,74.76
2019-01-31T03:54:27.968Z,75.07
2019-01-31T03:57:00.843Z,74.98
2019-01-31T03:59:31.658Z,74.03
2019-01-31T04:02:09.568Z,74.78
2019-01-31T04:04:42.595Z,74.17
2019-01-31T04:07:11.536Z,74.14
2019-01-31T04:09:39.829Z,74.42
2019-01-31T04:12:08.313Z,75.16
2019-01-31T04:14:36.613Z,74.90
2019-01-31T04:17:05.088Z,74.76
2019-01-31T04:19:33.461Z,74.97
2019-01-31T04:22:01.824Z,75.49
2019-01-31T04:24:30.217Z,75.00
2019-01-31T04:26:58.596Z,74.28
2019-01-31T04:29:26.912Z,74.85
2019-01-31T04:31:58.239Z,74.27
2019-01-31T04:34:26.565Z,73.96
2019-01-31T04:36:55.948Z,74.05
2019-01-31T04:39:24.264Z,73.87
2019-01-31T04:41:52.608Z,74.19
2019-01-31T04:44:20.950Z,74.40
2019-01-31T04:46:49.370Z,74.11
2019-01-31T04:49:17.699Z,74.06
2019-01-31T04:51:46.096Z,73.77
2019-01-31T04:54:14.387Z,73.48
2019-01-31T04:56:42.771Z,73.52
2019-01-31T04:59:11.643Z,73.19
2019-01-31T05:01:39.970Z,72.52
2019-01-31T05:04:08.314Z,72.17
2019-01-31T05:06:36.617Z,72.84
2019-01-31T05:09:06.791Z,73.11
2019-01-31T05:11:35.086Z,72.85
2019-01-31T05:14:03.551Z,72.96
2019-01-31T05:16:31.897Z,72.29
2019-01-31T05:19:00.317Z,72.33
2019-01-31T05:21:28.658Z,72.00
2019-01-31T05:23:56.998Z,71.84
2019-01-31T05:26:25.464Z,71.42
2019-01-31T05:28:53.958Z,71.45
2019-01-31T05:31:22.284Z,71.61
2019-01-31T05:33:50.712Z,70.86
2019-01-31T05:36:19.165Z,71.83
2019-01-31T05:38:47.499Z,71.02
2019-01-31T05:41:15.821Z,71.13
2019-01-31T05:43:44.216Z,70.77
2019-01-31T05:46:12.689Z,70.75
2019-01-31T05:48:41.042Z,70.54
2019-01-31T05:51:09.387Z,69.93
2019-01-31T05:53:37.725Z,69.48
2019-01-31T05:56:06.127Z,69.47
2019-01-31T05:58:34.641Z,69.65
2019-01-31T06:01:02.965Z,69.48
2019-01-31T06:03:31.317Z,69.90
2019-01-31T06:05:59.692Z,68.96
2019-01-31T06:08:28.010Z,69.57
2019-01-31T06:11:06.832Z,69.26
2019-01-31T06:13:26.682Z,69.77
2019-01-31T06:15:55.582Z,69.69
2019-01-31T06:18:23.949Z,70.38
2019-01-31T06:20:52.355Z,69.38
2019-01-31T06:23:21.558Z,69.26
2019-01-31T06:25:50.798Z,69.00
2019-01-31T06:28:19.312Z,69.83
2019-01-31T06:30:50.278Z,69.81
2019-01-31T06:33:18.780Z,69.72
2019-01-31T06:35:47.700Z,69.06
2019-01-31T06:38:16.006Z,69.43
2019-01-31T06:40:44.420Z,69.16
2019-01-31T06:43:12.874Z,68.79
2019-01-31T06:45:41.223Z,68.91
2019-01-31T06:48:09.825Z,69.03
2019-01-31T06:50:38.920Z,68.80
2019-01-31T06:53:08.916Z,68.55
2019-01-31T06:55:37.295Z,68.75
2019-01-31T06:58:07.751Z,69.01
2019-01-31T07:00:37.104Z,68.30
2019-01-31T07:03:06.034Z,68.55
2019-01-31T07:05:34.403Z,68.27
2019-01-31T07:08:04.715Z,68.47
2019-01-31T07:10:33.429Z,67.55
2019-01-31T07:13:01.757Z,66.93
2019-01-31T07:15:31.512Z,65.64
2019-01-31T07:17:59.984Z,64.96
2019-01-31T07:20:28.395Z,63.87
2019-01-31T07:22:56.680Z,64.23
2019-01-31T07:25:25.558Z,64.48
2019-01-31T07:27:53.947Z,64.75
2019-01-31T07:30:23.180Z,65.65
2019-01-31T07:32:51.557Z,65.68
2019-01-31T07:35:20.447Z,64.42
2019-01-31T07:37:49.029Z,64.41
2019-01-31T07:40:20.893Z,64.93
2019-01-31T07:42:49.317Z,63.87
2019-01-31T07:45:21.174Z,63.71
2019-01-31T07:47:49.626Z,64.21
2019-01-31T07:50:19.415Z,63.76
2019-01-31T07:52:47.803Z,63.41
2019-01-31T07:55:16.249Z,63.50
2019-01-31T07:57:44.616Z,62.89
2019-01-31T08:00:17.011Z,63.97
2019-01-31T08:02:45.373Z,63.07
2019-01-31T08:05:16.476Z,63.38
2019-01-31T08:07:45.035Z,71.25
2019-01-31T08:10:16.549Z,63.55
2019-01-31T08:12:45.034Z,63.40
2019-01-31T08:15:16.393Z,64.48
2019-01-31T08:17:44.727Z,64.21
2019-01-31T08:20:15.429Z,63.76
2019-01-31T08:22:43.927Z,63.75
2019-01-31T08:25:17.986Z,63.62
2019-01-31T08:27:47.786Z,64.93
2019-01-31T08:30:20.046Z,63.35
2019-01-31T08:32:50.041Z,63.90
2019-01-31T08:35:18.546Z,64.68
2019-01-31T08:37:47.056Z,64.77
2019-01-31T08:40:15.399Z,64.35
2019-01-31T08:42:43.863Z,64.63
2019-01-31T08:45:13.881Z,64.55
2019-01-31T08:47:42.335Z,64.24
2019-01-31T08:50:16.162Z,64.06
2019-01-31T08:52:44.606Z,63.78
2019-01-31T08:55:13.060Z,63.46
2019-01-31T08:57:41.619Z,64.11
2019-01-31T09:00:14.387Z,64.06
2019-01-31T09:02:44.099Z,64.27
2019-01-31T09:05:13.030Z,63.70
2019-01-31T09:07:42.059Z,63.91
2019-01-31T09:10:12.685Z,63.36
2019-01-31T09:12:41.713Z,63.53
2019-01-31T09:15:12.472Z,63.56
2019-01-31T09:17:43.537Z,64.71
2019-01-31T09:20:15.112Z,64.93
2019-01-31T09:22:48.143Z,65.36
2019-01-31T09:25:24.778Z,66.05
2019-01-31T09:27:56.946Z,66.23
2019-01-31T09:30:31.521Z,67.00
2019-01-31T09:33:04.450Z,67.43
2019-01-31T09:35:37.561Z,67.97
2019-01-31T09:38:10.099Z,67.29
2019-01-31T09:40:42.686Z,67.07
2019-01-31T09:43:15.303Z,65.93
2019-01-31T09:45:48.131Z,66.67
2019-01-31T09:51:30.301Z,68.18
2019-01-31T09:54:02.945Z,68.79
2019-01-31T09:56:36.729Z,68.49
2019-01-31T09:59:08.842Z,68.64
2019-01-31T10:01:42.544Z,68.55
2019-01-31T10:04:16.356Z,69.07
2019-01-31T10:06:49.375Z,69.40
2019-01-31T10:09:20.332Z,69.56
2019-01-31T10:11:53.061Z,69.62
2019-01-31T10:14:27.728Z,69.46
2019-01-31T10:16:59.580Z,71.50
2019-01-31T10:19:32.596Z,71.56
2019-01-31T10:22:03.456Z,71.72
2019-01-31T10:24:39.469Z,70.61
2019-01-31T10:27:15.230Z,70.48
2019-01-31T10:29:52.912Z,70.52
2019-01-31T10:32:28.528Z,70.75
2019-01-31T10:35:02.354Z,69.20
2019-01-31T10:37:32.950Z,70.67
2019-01-31T10:40:08.183Z,70.56
2019-01-31T10:42:50.384Z,70.97
2019-01-31T10:45:17.869Z,70.25
2019-01-31T10:47:50.613Z,70.22
2019-01-31T10:50:24.187Z,70.59
2019-01-31T10:52:56.285Z,70.68
2019-01-31T10:55:29.101Z,68.81
2019-01-31T10:57:59.802Z,68.75
2019-01-31T11:00:35.539Z,67.44
2019-01-31T11:03:10.198Z,67.76
2019-01-31T11:05:44.856Z,68.12
2019-01-31T11:08:19.600Z,68.20
2019-01-31T11:10:52.526Z,68.23
2019-01-31T11:13:26.152Z,67.79
2019-01-31T11:15:58.982Z,67.54
2019-01-31T11:18:34.730Z,68.68
2019-01-31T11:21:10.397Z,68.66
2019-01-31T11:23:45.167Z,67.67
2019-01-31T11:26:19.995Z,68.41
2019-01-31T11:28:54.775Z,68.95
2019-01-31T11:31:25.560Z,67.94
2019-01-31T11:33:57.728Z,67.65
2019-01-31T11:36:32.574Z,68.08
2019-01-31T11:39:09.430Z,68.56
2019-01-31T11:41:43.150Z,67.58
2019-01-31T11:44:17.832Z,68.07
2019-01-31T11:46:49.899Z,67.21
2019-01-31T11:49:24.082Z,67.21
2019-01-31T11:51:57.753Z,66.13
2019-01-31T11:54:32.542Z,65.56
2019-01-31T11:57:06.387Z,63.37
2019-01-31T11:59:34.786Z,61.02
2019-01-31T12:02:03.260Z,60.99
2019-01-31T12:04:31.604Z,59.58
2019-01-31T12:06:59.916Z,59.87
2019-01-31T12:09:28.311Z,60.83
2019-01-31T12:11:56.726Z,62.05
2019-01-31T12:14:25.124Z,63.50
2019-01-31T12:16:53.574Z,64.62
2019-01-31T12:19:21.899Z,65.23
2019-01-31T12:21:50.342Z,66.82
2019-01-31T12:24:18.869Z,66.65
2019-01-31T12:26:47.273Z,68.52
2019-01-31T12:29:15.653Z,67.36
2019-01-31T12:31:44.043Z,69.05
2019-01-31T12:34:12.382Z,67.63
2019-01-31T12:36:40.820Z,65.83
2019-01-31T12:39:09.685Z,66.55
2019-01-31T12:41:38.123Z,65.83
2019-01-31T12:44:07.074Z,67.41
2019-01-31T12:46:35.564Z,65.62
2019-01-31T12:49:04.074Z,66.25
2019-01-31T12:51:32.649Z,64.93
2019-01-31T12:54:01.126Z,66.95
2019-01-31T12:56:29.438Z,65.13
2019-01-31T12:58:57.748Z,65.32
2019-01-31T13:01:26.201Z,65.32
2019-01-31T13:03:54.505Z,64.97
2019-01-31T13:06:22.838Z,65.41
2019-01-31T13:08:51.146Z,64.72
2019-01-31T13:11:19.572Z,63.72
2019-01-31T13:13:47.910Z,66.07
2019-01-31T13:16:16.402Z,65.52
2019-01-31T13:18:44.713Z,66.89
2019-01-31T13:21:13.528Z,65.78
2019-01-31T13:23:41.915Z,67.03
2019-01-31T13:26:10.324Z,66.22
2019-01-31T13:28:38.699Z,66.90
2019-01-31T13:31:07.520Z,65.05
2019-01-31T13:33:35.968Z,65.35
2019-01-31T13:36:06.559Z,66.39
2019-01-31T13:38:34.877Z,65.38
2019-01-31T13:41:03.439Z,64.94
2019-01-31T13:43:32.017Z,65.65
2019-01-31T13:46:00.403Z,67.29
2019-01-31T13:48:29.018Z,66.22
2019-01-31T13:50:57.397Z,66.10
2019-01-31T13:53:25.929Z,66.44
2019-01-31T13:55:54.245Z,66.83
2019-01-31T13:58:22.622Z,65.97
2019-01-31T14:00:50.985Z,65.66
2019-01-31T14:03:19.412Z,67.54
2019-01-31T14:05:47.753Z,66.62
2019-01-31T14:08:16.208Z,67.74
2019-01-31T14:10:44.599Z,66.99
2019-01-31T14:13:13.000Z,66.74
2019-01-31T14:15:41.370Z,67.89
2019-01-31T14:18:09.697Z,66.65
2019-01-31T14:20:38.006Z,66.46
2019-01-31T14:23:06.895Z,66.23
2019-01-31T14:25:36.086Z,65.85
2019-01-31T14:28:09.894Z,65.99
2019-01-31T14:30:38.680Z,67.32
2019-01-31T14:33:09.740Z,66.84
2019-01-31T14:35:38.037Z,67.27
2019-01-31T14:38:07.473Z,66.20
2019-01-31T14:40:35.906Z,65.92
2019-01-31T14:43:04.625Z,66.04
2019-01-31T14:45:32.950Z,65.60
2019-01-31T14:48:01.277Z,65.82
2019-01-31T14:50:31.299Z,66.17
2019-01-31T14:52:59.877Z,65.73
2019-01-31T14:55:28.358Z,65.00
2019-01-31T14:57:57.012Z,65.42
2019-01-31T15:00:27.969Z,65.70
2019-01-31T15:02:56.292Z,64.79
2019-01-31T15:05:24.673Z,65.34
2019-01-31T15:07:53.126Z,64.66
2019-01-31T15:10:23.174Z,63.94
2019-01-31T15:12:52.608Z,65.43
2019-01-31T15:15:21.064Z,64.13
2019-01-31T15:17:49.446Z,64.21
2019-01-31T15:20:21.533Z,64.79
2019-01-31T15:22:49.841Z,64.34
2019-01-31T15:25:18.280Z,63.29
2019-01-31T15:27:46.599Z,63.99
2019-01-31T15:30:20.198Z,63.51
2019-01-31T15:32:48.515Z,65.41
2019-01-31T15:35:16.854Z,64.88
2019-01-31T15:37:45.191Z,63.04
2019-01-31T15:40:17.130Z,63.28
2019-01-31T15:42:45.523Z,63.90
2019-01-31T15:45:14.219Z,64.43
2019-01-31T15:47:42.605Z,64.41
2019-01-31T15:50:12.857Z,64.69
2019-01-31T15:52:41.250Z,63.92
2019-01-31T15:55:12.939Z,64.07
2019-01-31T15:57:41.401Z,63.75
2019-01-31T16:00:17.100Z,64.29
2019-01-31T16:02:45.529Z,64.22
2019-01-31T16:05:19.074Z,65.54
2019-01-31T16:07:44.437Z,66.14
2019-01-31T16:10:12.765Z,66.40
2019-01-31T16:12:41.228Z,66.95
2019-01-31T16:15:13.965Z,68.26
2019-01-31T16:17:42.271Z,67.53
2019-01-31T16:20:12.962Z,68.27
2019-01-31T16:22:41.725Z,68.54
2019-01-31T16:25:10.546Z,68.11
2019-01-31T16:27:39.026Z,68.21
2019-01-31T16:30:11.949Z,68.46
2019-01-31T16:32:40.785Z,69.19
2019-01-31T16:35:12.133Z,69.31
2019-01-31T16:37:40.596Z,69.29
2019-01-31T16:40:12.272Z,69.44
2019-01-31T16:42:40.727Z,69.56
2019-01-31T16:45:11.682Z,69.03
2019-01-31T16:47:40.162Z,69.16
2019-01-31T16:50:12.201Z,69.04
2019-01-31T16:52:41.596Z,69.15
2019-01-31T16:55:13.745Z,68.58
2019-01-31T16:57:42.275Z,69.28
2019-01-31T17:00:16.535Z,69.47
2019-01-31T17:02:44.949Z,69.93
2019-01-31T17:05:17.266Z,70.44
2019-01-31T17:07:45.794Z,70.16
2019-01-31T17:10:14.576Z,70.64
2019-01-31T17:12:42.966Z,70.74
2019-01-31T17:15:18.289Z,71.13
2019-01-31T17:17:44.874Z,70.72
2019-01-31T17:20:17.777Z,70.74
2019-01-31T17:22:46.141Z,70.48
2019-01-31T17:25:15.423Z,70.38
2019-01-31T17:27:43.758Z,70.80
2019-01-31T17:30:18.104Z,70.43
2019-01-31T17:32:46.498Z,70.27
2019-01-31T17:35:15.241Z,69.86
2019-01-31T17:37:44.288Z,69.88
2019-01-31T17:40:15.018Z,69.78
2019-01-31T17:42:43.402Z,69.40
2019-01-31T17:45:15.356Z,68.79
2019-01-31T17:47:43.814Z,69.04
2019-01-31T17:50:13.669Z,69.19
2019-01-31T17:52:42.170Z,68.81
2019-01-31T17:55:14.961Z,68.33
2019-01-31T17:57:43.563Z,67.38
2019-01-31T18:03:25.741Z,67.13
2019-01-31T18:05:54.198Z,67.64
2019-01-31T18:08:22.549Z,67.08
2019-01-31T18:10:50.940Z,67.73
2019-01-31T18:13:19.324Z,67.73
2019-01-31T18:15:47.736Z,67.54
2019-01-31T18:18:16.626Z,67.93
2019-01-31T18:20:45.000Z,68.30
2019-01-31T18:23:13.449Z,68.95
2019-01-31T18:25:41.910Z,69.38
2019-01-31T18:28:12.449Z,69.47
2019-01-31T18:30:41.050Z,70.01
2019-01-31T18:33:09.567Z,69.79
2019-01-31T18:35:37.950Z,69.14
2019-01-31T18:38:06.399Z,69.21
2019-01-31T18:40:35.916Z,68.96
2019-01-31T18:43:04.699Z,69.60
2019-01-31T18:45:34.863Z,69.19
2019-01-31T18:48:03.373Z,69.48
2019-01-31T18:50:34.322Z,70.04
2019-01-31T18:53:02.783Z,70.21
2019-01-31T18:55:31.242Z,69.97
2019-01-31T18:57:59.586Z,70.26
2019-01-31T19:00:31.121Z,70.58
2019-01-31T19:02:59.586Z,70.49
2019-01-31T19:05:28.158Z,70.54
2019-01-31T19:07:56.532Z,71.06
2019-01-31T19:10:25.085Z,70.68
2019-01-31T19:12:53.543Z,71.26
2019-01-31T19:15:25.147Z,71.46
2019-01-31T19:18:04.939Z,70.77
2019-01-31T19:20:26.771Z,71.17
2019-01-31T19:22:56.911Z,70.65
2019-01-31T19:25:25.409Z,70.99
2019-01-31T19:27:53.880Z,71.12
2019-01-31T19:30:24.614Z,71.46
2019-01-31T19:32:53.154Z,71.61
2019-01-31T19:35:21.733Z,71.36
2019-01-31T19:38:01.191Z,71.61
2019-01-31T19:40:23.233Z,71.99
2019-01-31T19:42:51.659Z,71.78
2019-01-31T19:45:25.780Z,71.87
2019-01-31T19:47:54.264Z,71.93
2019-01-31T19:50:22.666Z,71.87
2019-01-31T19:52:51.730Z,71.74
2019-01-31T19:55:20.220Z,71.97
2019-01-31T19:57:48.758Z,72.00
2019-01-31T20:00:20.213Z,72.06
2019-01-31T20:02:48.671Z,71.96
2019-01-31T20:05:17.221Z,72.18
2019-01-31T20:07:45.909Z,72.47
2019-01-31T20:10:18.012Z,72.91
2019-01-31T20:12:46.424Z,73.51
2019-01-31T20:15:15.513Z,73.97
2019-01-31T20:17:43.922Z,74.83
2019-01-31T20:20:19.959Z,75.54
2019-01-31T20:22:49.662Z,75.28
2019-01-31T20:25:18.399Z,75.29
2019-01-31T20:27:47.038Z,75.13
2019-01-31T20:30:18.925Z,74.96
2019-01-31T20:32:47.404Z,75.15
2019-01-31T20:35:17.715Z,74.59
2019-01-31T20:37:46.102Z,74.39
2019-01-31T20:40:17.956Z,74.26
2019-01-31T20:42:46.353Z,73.98
2019-01-31T20:45:15.883Z,73.58
2019-01-31T20:47:44.419Z,73.89
2019-01-31T20:50:15.144Z,72.76
2019-01-31T20:52:43.588Z,71.97
2019-01-31T20:55:14.487Z,71.16
2019-01-31T20:57:43.477Z,71.32
2019-01-31T21:00:19.437Z,70.68
2019-01-31T21:02:48.493Z,71.17
2019-01-31T21:05:16.927Z,71.06
2019-01-31T21:07:45.421Z,71.26
2019-01-31T21:10:14.592Z,71.86
2019-01-31T21:12:42.905Z,71.47
2019-01-31T21:15:15.982Z,71.59
2019-01-31T21:17:44.498Z,71.16
2019-01-31T21:20:15.741Z,70.71
2019-01-31T21:22:44.169Z,69.85
2019-01-31T21:25:15.430Z,69.53
2019-01-31T21:27:44.002Z,70.09
2019-01-31T21:30:16.650Z,69.88
2019-01-31T21:32:45.136Z,69.75
2019-01-31T21:38:17.610Z,69.11
2019-01-31T21:40:45.923Z,69.37
2019-01-31T21:43:14.591Z,69.00
2019-01-31T21:45:46.325Z,68.88
2019-01-31T21:48:14.653Z,68.21
2019-01-31T21:50:43.066Z,68.54
2019-01-31T21:53:12.158Z,68.96
2019-01-31T21:55:41.138Z,68.84
2019-01-31T21:58:10.531Z,68.98
2019-01-31T22:00:39.065Z,69.12
2019-01-31T22:03:08.007Z,68.32
2019-01-31T22:05:37.512Z,68.94
2019-01-31T22:08:07.680Z,68.57
2019-01-31T22:10:36.552Z,68.33
2019-01-31T22:13:07.283Z,68.45
2019-01-31T22:15:35.823Z,68.67
2019-01-31T22:18:06.576Z,68.27
2019-01-31T22:20:35.097Z,68.43
2019-01-31T22:23:03.770Z,68.55
2019-01-31T22:25:32.324Z,68.35
2019-01-31T22:28:02.321Z,68.10
2019-01-31T22:30:33.997Z,68.81
2019-01-31T22:33:06.172Z,68.21
2019-01-31T22:35:34.790Z,68.41
2019-01-31T22:38:03.437Z,68.23
2019-01-31T22:40:31.783Z,68.77
2019-01-31T22:43:00.159Z,68.27
2019-01-31T22:45:29.250Z,68.54
2019-01-31T22:47:58.208Z,68.59
2019-01-31T22:50:27.677Z,68.96
2019-01-31T22:52:56.031Z,69.10
2019-01-31T22:55:25.997Z,69.17
2019-01-31T22:57:54.823Z,68.86
2019-01-31T23:00:29.703Z,68.60
2019-01-31T23:02:58.077Z,67.94
2019-01-31T23:05:26.810Z,68.17
2019-01-31T23:07:55.237Z,67.60
2019-01-31T23:10:23.653Z,67.35
2019-01-31T23:12:52.487Z,67.12
2019-01-31T23:15:20.936Z,66.76
2019-01-31T23:17:49.335Z,66.78
2019-01-31T23:20:17.746Z,66.48
2019-01-31T23:22:46.061Z,66.20
2019-01-31T23:25:14.635Z,66.44
2019-01-31T23:27:42.986Z,65.89
2019-01-31T23:30:13.493Z,65.89
2019-01-31T23:32:41.791Z,65.87
2019-01-31T23:35:11.227Z,65.06
2019-01-31T23:37:39.527Z,65.14
2019-01-31T23:40:11.654Z,65.04
2019-01-31T23:42:39.938Z,64.83
2019-01-31T23:45:13.980Z,65.69
2019-01-31T23:47:48.855Z,65.72
2019-01-31T23:50:13.622Z,65.21
2019-01-31T23:52:42.128Z,65.70
2019-01-31T23:55:17.852Z,65.50
2019-01-31T23:57:47.308Z,66.42
